createdAt,value
2018-04-20T00:01:55.000Z,15.97
2018-04-20T00:04:22.503Z,15.88
2018-04-20T00:06:50.005Z,15.82
2018-04-20T00:09:17.547Z,15.97
2018-04-20T00:11:45.244Z,15.86
2018-04-20T00:14:12.752Z,15.87
2018-04-20T00:16:40.290Z,16.01
2018-04-20T00:19:07.802Z,16.09
2018-04-20T00:21:35.349Z,15.99
2018-04-20T00:24:02.900Z,16.07
2018-04-20T00:26:30.434Z,15.95
2018-04-20T00:28:58.017Z,15.84
2018-04-20T00:31:25.529Z,15.82
2018-04-20T00:33:53.027Z,15.94
2018-04-20T00:36:20.552Z,15.94
2018-04-20T00:38:48.106Z,15.95
2018-04-20T00:41:15.611Z,16.02
2018-04-20T00:43:43.123Z,15.94
2018-04-20T00:46:10.671Z,15.88
2018-04-20T00:48:38.168Z,15.86
2018-04-20T00:51:05.666Z,15.85
2018-04-20T00:53:44.849Z,15.76
2018-04-20T00:56:12.348Z,15.61
2018-04-20T00:58:39.840Z,15.69
2018-04-20T01:01:07.343Z,15.61
2018-04-20T01:03:34.886Z,15.64
2018-04-20T01:06:02.367Z,15.63
2018-04-20T01:08:29.869Z,15.65
2018-04-20T01:10:57.382Z,15.76
2018-04-20T01:13:24.886Z,15.76
2018-04-20T01:15:52.394Z,15.71
2018-04-20T01:18:19.890Z,15.55
2018-04-20T01:20:47.387Z,15.42
2018-04-20T01:23:14.944Z,15.36
2018-04-20T01:25:42.443Z,15.40
2018-04-20T01:28:09.938Z,15.45
2018-04-20T01:30:37.438Z,15.45
2018-04-20T01:33:04.935Z,15.22
2018-04-20T01:35:32.432Z,15.34
2018-04-20T01:37:59.940Z,15.40
2018-04-20T01:40:27.435Z,15.41
2018-04-20T01:42:54.929Z,15.31
2018-04-20T01:45:22.434Z,15.35
2018-04-20T01:47:49.934Z,15.34
2018-04-20T01:50:17.436Z,15.25
2018-04-20T01:52:44.940Z,15.07
2018-04-20T01:55:12.443Z,15.21
2018-04-20T01:57:39.934Z,15.14
2018-04-20T02:00:07.444Z,15.05
2018-04-20T02:02:34.951Z,15.07
2018-04-20T02:05:02.448Z,15.23
2018-04-20T02:07:29.967Z,15.14
2018-04-20T02:09:57.483Z,15.09
2018-04-20T02:12:24.993Z,15.06
2018-04-20T02:14:52.510Z,15.03
2018-04-20T02:17:20.058Z,15.04
2018-04-20T02:19:47.566Z,14.93
2018-04-20T02:22:15.065Z,14.98
2018-04-20T02:24:42.571Z,15.02
2018-04-20T02:27:10.123Z,15.00
2018-04-20T02:29:37.615Z,14.82
2018-04-20T02:32:05.156Z,14.82
2018-04-20T02:34:32.705Z,14.83
2018-04-20T02:37:00.208Z,14.89
2018-04-20T02:39:27.747Z,14.80
2018-04-20T02:41:55.333Z,14.80
2018-04-20T02:44:22.845Z,14.88
2018-04-20T02:46:50.367Z,14.98
2018-04-20T02:49:17.867Z,14.92
2018-04-20T02:51:45.633Z,14.73
2018-04-20T02:54:13.203Z,14.77
2018-04-20T02:56:40.795Z,14.93
2018-04-20T02:59:08.304Z,15.03
2018-04-20T03:01:35.855Z,15.07
2018-04-20T03:04:03.415Z,14.93
2018-04-20T03:06:30.921Z,15.04
2018-04-20T03:08:58.459Z,15.04
2018-04-20T03:11:25.969Z,14.95
2018-04-20T03:13:53.468Z,15.01
2018-04-20T03:16:20.971Z,15.07
2018-04-20T03:18:48.472Z,15.01
2018-04-20T03:21:15.990Z,14.88
2018-04-20T03:23:43.496Z,14.80
2018-04-20T03:26:11.002Z,14.87
2018-04-20T03:28:38.495Z,14.96
2018-04-20T03:31:05.995Z,14.95
2018-04-20T03:33:33.508Z,14.88
2018-04-20T03:36:01.007Z,14.83
2018-04-20T03:38:28.509Z,14.74
2018-04-20T03:40:56.066Z,14.75
2018-04-20T03:43:23.562Z,14.84
2018-04-20T03:45:51.068Z,14.82
2018-04-20T03:48:18.616Z,14.98
2018-04-20T03:50:46.120Z,15.11
2018-04-20T03:53:13.620Z,15.02
2018-04-20T03:55:41.116Z,14.99
2018-04-20T03:58:08.608Z,14.99
2018-04-20T04:00:36.151Z,15.02
2018-04-20T04:03:03.658Z,15.17
2018-04-20T04:05:31.183Z,15.17
2018-04-20T04:07:58.750Z,15.11
2018-04-20T04:10:26.256Z,15.13
2018-04-20T04:12:53.757Z,15.38
2018-04-20T04:15:21.267Z,15.29
2018-04-20T04:18:00.631Z,15.28
2018-04-20T04:20:36.959Z,15.60
2018-04-20T04:23:16.722Z,15.62
2018-04-20T04:25:56.139Z,15.31
2018-04-20T04:28:27.474Z,15.27
2018-04-20T04:30:55.013Z,15.40
2018-04-20T04:33:22.507Z,15.43
2018-04-20T04:35:50.083Z,15.15
2018-04-20T04:38:17.591Z,15.21
2018-04-20T04:40:45.204Z,15.28
2018-04-20T04:43:12.708Z,15.17
2018-04-20T04:45:40.231Z,15.26
2018-04-20T04:48:07.761Z,15.23
2018-04-20T04:50:35.342Z,15.03
2018-04-20T04:53:02.848Z,15.04
2018-04-20T04:55:30.351Z,15.09
2018-04-20T04:57:57.843Z,15.25
2018-04-20T05:00:25.392Z,15.42
2018-04-20T05:02:52.935Z,15.29
2018-04-20T05:05:20.500Z,15.36
2018-04-20T05:07:48.053Z,15.52
2018-04-20T05:10:15.612Z,15.57
2018-04-20T05:12:43.115Z,15.73
2018-04-20T05:15:10.615Z,15.72
2018-04-20T05:17:38.111Z,15.75
2018-04-20T05:20:05.655Z,15.38
2018-04-20T05:22:33.155Z,15.15
2018-04-20T05:25:00.688Z,15.01
2018-04-20T05:27:28.244Z,15.42
2018-04-20T05:29:55.787Z,15.81
2018-04-20T05:32:23.345Z,15.65
2018-04-20T05:34:50.852Z,15.75
2018-04-20T05:37:18.412Z,15.58
2018-04-20T05:39:45.967Z,15.47
2018-04-20T05:42:13.481Z,15.43
2018-04-20T05:44:40.990Z,15.64
2018-04-20T05:47:08.517Z,15.57
2018-04-20T05:49:36.039Z,15.56
2018-04-20T05:52:03.600Z,15.47
2018-04-20T05:54:31.117Z,15.36
2018-04-20T05:56:58.652Z,15.43
2018-04-20T05:59:26.162Z,15.54
2018-04-20T06:01:53.751Z,15.63
2018-04-20T06:04:21.270Z,15.90
2018-04-20T06:06:48.775Z,15.97
2018-04-20T06:09:16.329Z,16.05
2018-04-20T06:11:43.878Z,15.98
2018-04-20T06:14:11.394Z,16.15
2018-04-20T06:16:38.891Z,16.25
2018-04-20T06:19:06.399Z,16.02
2018-04-20T06:21:34.229Z,16.40
2018-04-20T06:24:01.736Z,16.78
2018-04-20T06:26:29.250Z,16.82
2018-04-20T06:28:56.755Z,16.90
2018-04-20T06:31:24.275Z,17.11
2018-04-20T06:33:51.824Z,17.08
2018-04-20T06:36:19.325Z,17.58
2018-04-20T06:38:46.846Z,17.28
2018-04-20T06:41:14.354Z,17.58
2018-04-20T06:43:41.913Z,18.71
2018-04-20T06:46:09.501Z,18.68
2018-04-20T06:48:37.021Z,18.70
2018-04-20T06:51:04.602Z,18.61
2018-04-20T06:53:32.116Z,18.80
2018-04-20T06:55:59.639Z,20.10
2018-04-20T06:58:27.165Z,20.72
2018-04-20T07:00:54.669Z,20.78
2018-04-20T07:03:22.188Z,21.89
2018-04-20T07:05:49.685Z,21.90
2018-04-20T07:08:17.222Z,22.55
2018-04-20T07:10:44.715Z,23.63
2018-04-20T07:13:12.238Z,24.54
2018-04-20T07:15:39.742Z,25.04
2018-04-20T07:18:07.284Z,25.50
2018-04-20T07:20:34.803Z,25.44
2018-04-20T07:23:02.358Z,26.20
2018-04-20T07:25:29.851Z,25.72
2018-04-20T07:27:57.371Z,25.52
2018-04-20T07:30:24.874Z,25.76
2018-04-20T07:32:52.391Z,26.51
2018-04-20T07:35:19.918Z,25.01
2018-04-20T07:37:47.432Z,23.90
2018-04-20T07:40:14.939Z,22.50
2018-04-20T07:42:42.472Z,22.68
2018-04-20T07:45:09.966Z,22.51
2018-04-20T07:47:37.476Z,22.31
2018-04-20T07:50:05.008Z,21.13
2018-04-20T07:52:32.511Z,20.64
2018-04-20T07:55:00.030Z,20.83
2018-04-20T07:57:27.533Z,21.30
2018-04-20T07:59:55.085Z,21.26
2018-04-20T08:02:22.587Z,21.92
2018-04-20T08:04:50.101Z,21.38
2018-04-20T08:07:17.615Z,21.35
2018-04-20T08:09:45.117Z,23.10
2018-04-20T08:12:12.660Z,23.69
2018-04-20T08:14:40.229Z,24.76
2018-04-20T08:17:07.799Z,24.67
2018-04-20T08:19:35.307Z,24.19
2018-04-20T08:22:02.823Z,25.22
2018-04-20T08:24:30.331Z,25.65
2018-04-20T08:26:57.868Z,26.33
2018-04-20T08:29:25.450Z,25.24
2018-04-20T08:31:52.976Z,25.31
2018-04-20T08:34:20.532Z,26.45
2018-04-20T08:36:48.039Z,25.22
2018-04-20T08:39:15.589Z,25.67
2018-04-20T08:41:43.115Z,27.40
2018-04-20T08:44:10.616Z,28.21
2018-04-20T08:46:38.175Z,28.41
2018-04-20T08:49:05.670Z,27.26
2018-04-20T08:51:33.228Z,27.18
2018-04-20T08:54:00.816Z,27.21
2018-04-20T08:56:28.304Z,26.63
2018-04-20T08:58:55.812Z,26.09
2018-04-20T09:01:23.348Z,27.11
2018-04-20T09:03:50.864Z,26.54
2018-04-20T09:06:18.420Z,26.80
2018-04-20T09:08:45.925Z,26.77
2018-04-20T09:11:13.443Z,28.43
2018-04-20T09:13:40.988Z,28.88
2018-04-20T09:16:08.517Z,28.96
2018-04-20T09:18:36.092Z,28.97
2018-04-20T09:21:03.599Z,27.61
2018-04-20T09:23:31.114Z,27.08
2018-04-20T09:25:58.610Z,26.66
2018-04-20T09:28:26.108Z,26.94
2018-04-20T09:30:53.646Z,27.75
2018-04-20T09:33:21.146Z,27.24
2018-04-20T09:35:48.706Z,26.54
2018-04-20T09:38:16.212Z,25.61
2018-04-20T09:40:43.779Z,25.44
2018-04-20T09:43:11.284Z,25.48
2018-04-20T09:45:38.820Z,24.73
2018-04-20T09:48:06.362Z,24.00
2018-04-20T09:50:33.863Z,23.36
2018-04-20T09:53:01.431Z,22.81
2018-04-20T09:55:28.956Z,22.85
2018-04-20T09:57:56.491Z,22.35
2018-04-20T10:00:24.055Z,21.77
2018-04-20T10:02:51.952Z,21.67
2018-04-20T10:05:24.388Z,21.36
2018-04-20T10:07:51.953Z,21.72
2018-04-20T10:10:19.451Z,22.06
2018-04-20T10:12:46.962Z,22.48
2018-04-20T10:15:14.512Z,24.26
2018-04-20T10:17:42.033Z,26.06
2018-04-20T10:20:09.556Z,25.91
2018-04-20T10:22:37.077Z,24.93
2018-04-20T10:25:04.573Z,23.21
2018-04-20T10:27:32.114Z,22.08
2018-04-20T10:29:59.663Z,22.25
2018-04-20T10:32:27.171Z,21.64
2018-04-20T10:34:54.725Z,21.33
2018-04-20T10:37:22.227Z,21.39
2018-04-20T10:39:49.731Z,21.65
2018-04-20T10:42:17.275Z,21.61
2018-04-20T10:44:44.779Z,21.40
2018-04-20T10:47:12.403Z,21.19
2018-04-20T10:49:39.918Z,21.22
2018-04-20T10:52:07.431Z,21.32
2018-04-20T10:54:34.939Z,21.31
2018-04-20T10:57:02.438Z,21.02
2018-04-20T10:59:29.963Z,20.93
2018-04-20T11:01:57.471Z,20.70
2018-04-20T11:04:25.031Z,21.21
2018-04-20T11:06:52.531Z,20.87
2018-04-20T11:09:20.051Z,20.69
2018-04-20T11:11:47.610Z,20.64
2018-04-20T11:14:15.106Z,20.71
2018-04-20T11:16:42.629Z,20.29
2018-04-20T11:19:10.124Z,20.46
2018-04-20T11:21:38.488Z,20.77
2018-04-20T11:24:06.048Z,20.65
2018-04-20T11:26:33.559Z,20.60
2018-04-20T11:29:01.104Z,21.18
2018-04-20T11:31:28.598Z,21.46
2018-04-20T11:33:56.134Z,21.33
2018-04-20T11:36:23.643Z,20.98
2018-04-20T11:38:51.174Z,21.22
2018-04-20T11:41:18.667Z,21.23
2018-04-20T11:43:46.207Z,21.20
2018-04-20T11:46:13.706Z,21.12
2018-04-20T11:48:41.255Z,20.12
2018-04-20T11:51:08.806Z,19.97
2018-04-20T11:53:36.324Z,19.95
2018-04-20T11:56:03.841Z,19.89
2018-04-20T11:58:31.352Z,21.36
2018-04-20T12:00:58.895Z,23.09
2018-04-20T12:03:26.412Z,22.19
2018-04-20T12:05:53.927Z,21.61
2018-04-20T12:08:21.476Z,20.54
2018-04-20T12:10:49.001Z,20.53
2018-04-20T12:13:16.543Z,20.38
2018-04-20T12:15:44.060Z,20.25
2018-04-20T12:18:11.604Z,19.71
2018-04-20T12:20:39.110Z,19.45
2018-04-20T12:23:06.647Z,19.22
2018-04-20T12:25:34.150Z,19.06
2018-04-20T12:28:01.658Z,19.62
2018-04-20T12:30:29.302Z,19.68
2018-04-20T12:32:56.807Z,19.89
2018-04-20T12:35:24.299Z,20.73
2018-04-20T12:37:51.807Z,20.77
2018-04-20T12:40:19.360Z,21.46
2018-04-20T12:42:46.863Z,21.57
2018-04-20T12:45:14.358Z,21.95
2018-04-20T12:47:41.912Z,21.71
2018-04-20T12:50:09.488Z,20.99
2018-04-20T12:52:36.978Z,21.84
2018-04-20T12:55:04.471Z,22.54
2018-04-20T12:57:32.019Z,22.29
2018-04-20T12:59:59.524Z,21.45
2018-04-20T13:02:27.081Z,22.39
2018-04-20T13:04:54.625Z,22.01
2018-04-20T13:07:22.124Z,21.54
2018-04-20T13:09:49.640Z,20.57
2018-04-20T13:12:17.513Z,20.31
2018-04-20T13:14:45.025Z,20.11
2018-04-20T13:17:12.538Z,19.79
2018-04-20T13:19:40.056Z,19.26
2018-04-20T13:22:07.555Z,19.36
2018-04-20T13:24:35.051Z,19.34
2018-04-20T13:27:02.578Z,19.50
2018-04-20T13:29:30.092Z,19.87
2018-04-20T13:31:57.610Z,20.13
2018-04-20T13:34:25.237Z,20.39
2018-04-20T13:36:52.684Z,20.49
2018-04-20T13:39:20.176Z,20.40
2018-04-20T13:41:48.037Z,20.62
2018-04-20T13:44:15.536Z,20.69
2018-04-20T13:46:44.032Z,20.49
2018-04-20T13:49:11.543Z,20.36
2018-04-20T13:51:39.099Z,20.36
2018-04-20T13:54:06.603Z,20.18
2018-04-20T13:56:34.109Z,19.93
2018-04-20T13:59:01.607Z,19.92
2018-04-20T14:01:29.141Z,20.08
2018-04-20T14:03:56.689Z,19.82
2018-04-20T14:06:24.188Z,19.75
2018-04-20T14:08:51.740Z,19.96
2018-04-20T14:11:19.263Z,19.98
2018-04-20T14:13:46.767Z,19.67
2018-04-20T14:16:14.275Z,19.67
2018-04-20T14:18:41.769Z,19.95
2018-04-20T14:21:09.308Z,20.13
2018-04-20T14:23:36.825Z,20.21
2018-04-20T14:26:04.324Z,20.05
2018-04-20T14:28:31.831Z,20.22
2018-04-20T14:30:59.364Z,20.28
2018-04-20T14:33:26.871Z,20.45
2018-04-20T14:35:54.379Z,20.61
2018-04-20T14:38:21.911Z,20.64
2018-04-20T14:40:49.468Z,20.34
2018-04-20T14:43:17.023Z,20.23
2018-04-20T14:45:44.528Z,20.17
2018-04-20T14:48:12.045Z,19.69
2018-04-20T14:50:39.544Z,19.69
2018-04-20T14:53:07.054Z,19.52
2018-04-20T14:55:34.560Z,19.40
2018-04-20T14:58:02.057Z,19.45
2018-04-20T15:00:29.603Z,19.36
2018-04-20T15:02:57.115Z,19.24
2018-04-20T15:05:24.660Z,18.84
2018-04-20T15:07:52.199Z,18.92
2018-04-20T15:10:19.694Z,19.00
2018-04-20T15:12:47.244Z,19.21
2018-04-20T15:15:14.743Z,19.24
2018-04-20T15:17:42.239Z,19.19
2018-04-20T15:20:09.812Z,19.23
2018-04-20T15:22:37.319Z,19.05
2018-04-20T15:25:04.869Z,19.04
2018-04-20T15:27:32.416Z,18.91
2018-04-20T15:30:00.464Z,19.06
2018-04-20T15:32:27.960Z,19.04
2018-04-20T15:34:55.498Z,18.90
2018-04-20T15:37:22.999Z,18.83
2018-04-20T15:39:50.493Z,18.93
2018-04-20T15:42:17.995Z,19.06
2018-04-20T15:44:45.545Z,18.88
2018-04-20T15:47:13.044Z,18.87
2018-04-20T15:49:40.574Z,18.92
2018-04-20T15:52:08.129Z,18.91
2018-04-20T15:54:35.652Z,18.78
2018-04-20T15:57:03.165Z,18.72
2018-04-20T15:59:30.709Z,18.60
2018-04-20T16:01:58.214Z,18.58
2018-04-20T16:04:25.728Z,18.64
2018-04-20T16:06:53.348Z,18.40
2018-04-20T16:09:20.846Z,18.73
2018-04-20T16:11:48.409Z,18.80
2018-04-20T16:14:15.911Z,18.43
2018-04-20T16:16:43.454Z,18.43
2018-04-20T16:19:10.952Z,18.19
2018-04-20T16:21:38.500Z,18.27
2018-04-20T16:24:06.007Z,18.37
2018-04-20T16:26:33.547Z,18.38
2018-04-20T16:29:01.060Z,18.22
2018-04-20T16:31:28.639Z,18.06
2018-04-20T16:33:56.141Z,18.07
2018-04-20T16:36:23.643Z,17.99
2018-04-20T16:38:51.209Z,17.94
2018-04-20T16:41:18.704Z,18.01
2018-04-20T16:43:46.415Z,17.87
2018-04-20T16:46:13.915Z,17.80
2018-04-20T16:48:41.477Z,17.79
2018-04-20T16:51:08.979Z,17.70
2018-04-20T16:53:36.483Z,17.72
2018-04-20T16:56:03.992Z,17.74
2018-04-20T16:58:31.590Z,17.69
2018-04-20T17:00:59.134Z,17.64
2018-04-20T17:03:26.640Z,17.42
2018-04-20T17:05:54.141Z,17.53
2018-04-20T17:08:21.647Z,17.52
2018-04-20T17:10:49.152Z,17.45
2018-04-20T17:13:16.692Z,17.37
2018-04-20T17:15:44.200Z,17.33
2018-04-20T17:18:11.802Z,17.27
2018-04-20T17:20:39.323Z,16.94
2018-04-20T17:23:06.820Z,17.16
2018-04-20T17:25:34.339Z,17.12
2018-04-20T17:28:01.849Z,17.09
2018-04-20T17:30:29.454Z,17.12
2018-04-20T17:32:56.962Z,17.19
2018-04-20T17:35:24.465Z,17.12
2018-04-20T17:37:51.963Z,17.10
2018-04-20T17:40:19.475Z,16.95
2018-04-20T17:42:46.977Z,16.88
2018-04-20T17:45:14.481Z,16.96
2018-04-20T17:47:42.004Z,17.17
2018-04-20T17:50:09.516Z,17.16
2018-04-20T17:52:37.077Z,17.16
2018-04-20T17:55:04.579Z,17.08
2018-04-20T17:57:32.093Z,17.18
2018-04-20T17:59:59.598Z,17.14
2018-04-20T18:02:27.104Z,17.08
2018-04-20T18:04:54.603Z,17.01
2018-04-20T18:07:22.153Z,16.92
2018-04-20T18:09:49.660Z,16.95
2018-04-20T18:12:17.164Z,16.87
2018-04-20T18:14:44.679Z,16.72
2018-04-20T18:17:12.183Z,16.65
2018-04-20T18:19:39.721Z,16.63
2018-04-20T18:22:07.217Z,16.53
2018-04-20T18:24:34.730Z,16.43
2018-04-20T18:27:02.248Z,16.35
2018-04-20T18:29:29.757Z,16.31
2018-04-20T18:31:57.264Z,16.05
2018-04-20T18:34:24.759Z,16.00
2018-04-20T18:36:52.251Z,16.09
2018-04-20T18:39:19.747Z,16.14
2018-04-20T18:41:47.252Z,16.20
2018-04-20T18:44:14.787Z,16.13
2018-04-20T18:46:42.335Z,15.89
2018-04-20T18:49:09.839Z,15.92
2018-04-20T18:51:37.367Z,15.94
2018-04-20T18:54:04.883Z,15.96
2018-04-20T18:56:32.383Z,15.98
2018-04-20T18:58:59.891Z,15.99
2018-04-20T19:01:27.408Z,15.91
2018-04-20T19:03:54.956Z,15.93
2018-04-20T19:06:22.519Z,15.88
2018-04-20T19:08:50.044Z,15.89
2018-04-20T19:11:17.608Z,15.71
2018-04-20T19:13:45.131Z,15.52
2018-04-20T19:16:12.681Z,15.52
2018-04-20T19:18:40.194Z,15.44
2018-04-20T19:21:08.582Z,15.10
2018-04-20T19:23:36.102Z,15.16
2018-04-20T19:26:03.614Z,15.08
2018-04-20T19:28:31.156Z,15.11
2018-04-20T19:30:58.666Z,15.12
2018-04-20T19:33:26.213Z,15.12
2018-04-20T19:35:53.720Z,15.16
2018-04-20T19:38:21.248Z,15.25
2018-04-20T19:40:48.761Z,15.25
2018-04-20T19:43:16.302Z,15.29
2018-04-20T19:45:43.818Z,15.31
2018-04-20T19:48:11.331Z,15.29
2018-04-20T19:50:38.849Z,15.46
2018-04-20T19:53:06.359Z,15.48
2018-04-20T19:55:33.868Z,15.37
2018-04-20T19:58:01.377Z,15.45
2018-04-20T20:00:28.883Z,15.52
2018-04-20T20:02:56.423Z,15.36
2018-04-20T20:05:23.971Z,15.19
2018-04-20T20:07:51.480Z,14.96
2018-04-20T20:10:18.992Z,14.78
2018-04-20T20:12:46.496Z,14.87
2018-04-20T20:15:14.012Z,14.83
2018-04-20T20:17:41.830Z,14.89
2018-04-20T20:20:09.339Z,15.03
2018-04-20T20:22:36.882Z,15.08
2018-04-20T20:25:04.429Z,15.09
2018-04-20T20:27:31.912Z,15.10
2018-04-20T20:29:59.423Z,14.89
2018-04-20T20:32:26.929Z,14.80
2018-04-20T20:34:54.435Z,14.71
2018-04-20T20:37:21.942Z,14.59
2018-04-20T20:39:49.449Z,14.61
2018-04-20T20:42:16.962Z,14.56
2018-04-20T20:44:44.463Z,14.56
2018-04-20T20:47:11.994Z,14.49
2018-04-20T20:49:39.509Z,14.40
2018-04-20T20:52:07.027Z,14.28
2018-04-20T20:54:34.533Z,14.29
2018-04-20T20:57:02.967Z,14.21
2018-04-20T20:59:31.287Z,14.13
2018-04-20T21:01:58.786Z,13.94
2018-04-20T21:04:26.293Z,13.82
2018-04-20T21:06:53.819Z,13.67
2018-04-20T21:09:21.374Z,13.63
2018-04-20T21:11:48.943Z,13.56
2018-04-20T21:14:16.481Z,13.44
2018-04-20T21:16:44.024Z,13.38
2018-04-20T21:19:11.611Z,13.40
2018-04-20T21:21:39.144Z,13.38
2018-04-20T21:24:06.644Z,13.35
2018-04-20T21:26:34.470Z,13.26
2018-04-20T21:29:01.972Z,13.26
2018-04-20T21:31:29.493Z,13.22
2018-04-20T21:33:59.378Z,13.22
2018-04-20T21:36:24.619Z,13.05
2018-04-20T21:38:52.141Z,13.03
2018-04-20T21:41:19.648Z,12.98
2018-04-20T21:43:47.160Z,12.93
2018-04-20T21:46:14.662Z,12.99
2018-04-20T21:48:42.168Z,12.93
2018-04-20T21:51:09.672Z,12.94
2018-04-20T21:53:37.219Z,12.93
2018-04-20T21:56:04.753Z,12.87
2018-04-20T21:58:32.263Z,12.92
2018-04-20T22:00:59.831Z,13.01
2018-04-20T22:03:27.383Z,12.93
2018-04-20T22:05:55.939Z,12.87
2018-04-20T22:08:23.492Z,12.84
2018-04-20T22:10:51.074Z,12.97
2018-04-20T22:13:18.613Z,12.98
2018-04-20T22:15:46.168Z,12.76
2018-04-20T22:18:13.703Z,12.47
2018-04-20T22:20:41.255Z,12.44
2018-04-20T22:23:08.835Z,12.38
2018-04-20T22:25:36.371Z,12.38
2018-04-20T22:28:04.041Z,12.45
2018-04-20T22:30:31.627Z,12.50
2018-04-20T22:32:59.151Z,12.53
2018-04-20T22:35:26.690Z,12.49
2018-04-20T22:37:54.234Z,12.47
2018-04-20T22:40:21.767Z,12.56
2018-04-20T22:42:49.280Z,12.55
2018-04-20T22:45:16.828Z,12.64
2018-04-20T22:47:44.377Z,12.44
2018-04-20T22:50:11.924Z,12.34
2018-04-20T22:52:39.432Z,12.32
2018-04-20T22:55:06.936Z,12.23
2018-04-20T22:57:34.484Z,12.22
2018-04-20T23:00:02.001Z,12.31
2018-04-20T23:02:29.511Z,12.25
2018-04-20T23:04:57.024Z,12.25
2018-04-20T23:07:24.580Z,12.13
2018-04-20T23:09:52.191Z,12.13
2018-04-20T23:12:19.772Z,12.12
2018-04-20T23:14:47.304Z,12.18
2018-04-20T23:17:14.959Z,12.21
2018-04-20T23:19:42.504Z,12.03
2018-04-20T23:22:10.085Z,12.08
2018-04-20T23:27:10.529Z,11.80
2018-04-20T23:29:38.133Z,11.92
2018-04-20T23:32:05.663Z,11.81
2018-04-20T23:34:33.215Z,11.77
2018-04-20T23:37:00.759Z,11.77
2018-04-20T23:39:28.337Z,11.50
2018-04-20T23:41:55.864Z,11.49
2018-04-20T23:44:23.416Z,11.46
2018-04-20T23:46:50.993Z,11.44
2018-04-20T23:49:18.529Z,11.39
2018-04-20T23:51:46.067Z,11.41
2018-04-20T23:54:13.618Z,11.67
2018-04-20T23:56:42.073Z,11.80
2018-04-20T23:59:09.639Z,11.91
